Chuckatuck, Virginia
Current Conditions -  °F | °C
As of 3:55 AM on Saturday 25 Oct 2014 (Local Time) from KPVG Reporting Station
Clear Clear  
Wind Chill: 37°   Ceiling: Unl
Heat Index: 37°   Visibility: 7mi
Dew Point: 34°   Wind: 0mph
Humidity: 87%   Direction: NA
Pressure: 29.97"   Gusts: NA
Location:  36.8725°N, 76.5524°W
Report Text: KPVG 250755Z AUTO 00000KT 7SM CLR 03/01 A2997 RMK AO1
Loading
Personal Weather Stations






























Interactive Weather Map
Tropical Storm Tracking
New forecast layout! Learn more

10-Day Weather Forecast

Advertisements
Track Severe Weather on mobile